sensor_id;sensor_type;location;lat;lon;timestamp;pressure;altitude;pressure_sealevel;temperature;humidity
6030;BME280;3043;42.682;23.376;2022-07-05T00:02:11;95096.78;;;22.63;63.55
6030;BME280;3043;42.682;23.376;2022-07-05T00:04:36;95093.28;;;22.63;63.10
6030;BME280;3043;42.682;23.376;2022-07-05T00:07:02;95096.03;;;22.61;63.92
6030;BME280;3043;42.682;23.376;2022-07-05T00:09:43;95090.22;;;22.56;64.62
6030;BME280;3043;42.682;23.376;2022-07-05T00:12:10;95092.41;;;22.50;65.50
6030;BME280;3043;42.682;23.376;2022-07-05T00:14:38;95087.34;;;22.47;65.99
6030;BME280;3043;42.682;23.376;2022-07-05T00:17:04;95088.63;;;22.41;66.10
6030;BME280;3043;42.682;23.376;2022-07-05T00:19:29;95092.44;;;22.37;67.03
6030;BME280;3043;42.682;23.376;2022-07-05T00:21:55;95087.03;;;22.26;68.74
6030;BME280;3043;42.682;23.376;2022-07-05T00:24:20;95085.47;;;22.24;69.38
6030;BME280;3043;42.682;23.376;2022-07-05T00:26:45;95085.25;;;22.14;69.62
6030;BME280;3043;42.682;23.376;2022-07-05T00:29:11;95082.28;;;22.06;71.56
6030;BME280;3043;42.682;23.376;2022-07-05T00:31:36;95078.69;;;21.95;72.40
6030;BME280;3043;42.682;23.376;2022-07-05T00:34:02;95074.66;;;21.89;74.05
6030;BME280;3043;42.682;23.376;2022-07-05T00:36:27;95065.47;;;21.82;75.16
6030;BME280;3043;42.682;23.376;2022-07-05T00:38:53;95073.78;;;21.76;75.72
6030;BME280;3043;42.682;23.376;2022-07-05T00:41:18;95075.47;;;21.77;75.31
6030;BME280;3043;42.682;23.376;2022-07-05T00:43:55;95070.78;;;21.68;75.58
6030;BME280;3043;42.682;23.376;2022-07-05T00:46:21;95075.53;;;21.63;76.24
6030;BME280;3043;42.682;23.376;2022-07-05T00:48:46;95080.25;;;21.58;77.47
6030;BME280;3043;42.682;23.376;2022-07-05T00:51:12;95076.09;;;21.54;78.82
6030;BME280;3043;42.682;23.376;2022-07-05T00:53:38;95075.06;;;21.57;77.42
6030;BME280;3043;42.682;23.376;2022-07-05T00:56:04;95068.19;;;21.54;77.65
6030;BME280;3043;42.682;23.376;2022-07-05T00:58:32;95061.47;;;21.50;78.54
6030;BME280;3043;42.682;23.376;2022-07-05T01:00:57;95068.69;;;21.47;78.72
6030;BME280;3043;42.682;23.376;2022-07-05T01:03:23;95061.84;;;21.44;80.49
6030;BME280;3043;42.682;23.376;2022-07-05T01:05:49;95061.22;;;21.41;80.65
6030;BME280;3043;42.682;23.376;2022-07-05T01:08:15;95069.22;;;21.39;81.28
6030;BME280;3043;42.682;23.376;2022-07-05T01:10:41;95056.13;;;21.38;81.39
6030;BME280;3043;42.682;23.376;2022-07-05T01:13:08;95066.78;;;21.36;81.71
6030;BME280;3043;42.682;23.376;2022-07-05T01:15:34;95072.03;;;21.36;81.36
6030;BME280;3043;42.682;23.376;2022-07-05T01:18:00;95074.16;;;21.31;82.04
6030;BME280;3043;42.682;23.376;2022-07-05T01:20:25;95074.34;;;21.28;83.54
6030;BME280;3043;42.682;23.376;2022-07-05T01:22:55;95076.59;;;21.34;83.86
6030;BME280;3043;42.682;23.376;2022-07-05T01:25:22;95084.78;;;21.30;84.01
6030;BME280;3043;42.682;23.376;2022-07-05T01:27:49;95086.84;;;21.25;84.34
6030;BME280;3043;42.682;23.376;2022-07-05T01:30:15;95088.44;;;21.27;84.33
6030;BME280;3043;42.682;23.376;2022-07-05T01:32:41;95089.19;;;21.29;83.67
6030;BME280;3043;42.682;23.376;2022-07-05T01:35:10;95082.03;;;21.31;84.07
6030;BME280;3043;42.682;23.376;2022-07-05T01:37:36;95088.59;;;21.38;82.33
6030;BME280;3043;42.682;23.376;2022-07-05T01:40:04;95085.22;;;21.36;82.62
6030;BME280;3043;42.682;23.376;2022-07-05T01:42:29;95085.59;;;21.30;82.25
6030;BME280;3043;42.682;23.376;2022-07-05T01:44:55;95082.03;;;21.31;82.64
6030;BME280;3043;42.682;23.376;2022-07-05T01:47:21;95080.63;;;21.26;82.04
6030;BME280;3043;42.682;23.376;2022-07-05T01:49:48;95074.84;;;21.21;83.33
6030;BME280;3043;42.682;23.376;2022-07-05T01:52:16;95078.28;;;21.21;83.28
6030;BME280;3043;42.682;23.376;2022-07-05T01:54:42;95082.84;;;21.19;83.17
6030;BME280;3043;42.682;23.376;2022-07-05T01:57:08;95088.09;;;21.19;83.64
6030;BME280;3043;42.682;23.376;2022-07-05T01:59:36;95076.91;;;21.16;83.44
6030;BME280;3043;42.682;23.376;2022-07-05T02:02:03;95084.06;;;21.13;83.54
6030;BME280;3043;42.682;23.376;2022-07-05T02:04:29;95083.44;;;21.10;83.45
6030;BME280;3043;42.682;23.376;2022-07-05T02:06:55;95078.38;;;21.07;82.91
6030;BME280;3043;42.682;23.376;2022-07-05T02:09:20;95073.25;;;21.04;83.85
6030;BME280;3043;42.682;23.376;2022-07-05T02:11:46;95075.81;;;21.05;81.13
6030;BME280;3043;42.682;23.376;2022-07-05T02:14:11;95064.44;;;21.05;84.11
6030;BME280;3043;42.682;23.376;2022-07-05T02:16:37;95066.22;;;21.04;84.26
6030;BME280;3043;42.682;23.376;2022-07-05T02:19:03;95068.00;;;21.04;84.34
6030;BME280;3043;42.682;23.376;2022-07-05T02:21:29;95075.16;;;21.02;85.85
6030;BME280;3043;42.682;23.376;2022-07-05T02:23:54;95068.00;;;21.04;85.55
6030;BME280;3043;42.682;23.376;2022-07-05T02:26:20;95069.72;;;21.05;84.82
6030;BME280;3043;42.682;23.376;2022-07-05T02:28:45;95081.91;;;21.06;84.64
6030;BME280;3043;42.682;23.376;2022-07-05T02:31:11;95080.03;;;21.08;85.00
6030;BME280;3043;42.682;23.376;2022-07-05T02:33:37;95088.03;;;21.06;86.63
6030;BME280;3043;42.682;23.376;2022-07-05T02:36:10;95089.44;;;20.98;87.21
6030;BME280;3043;42.682;23.376;2022-07-05T02:38:36;95091.16;;;20.99;88.06
6030;BME280;3043;42.682;23.376;2022-07-05T02:41:06;95094.72;;;20.98;89.28
6030;BME280;3043;42.682;23.376;2022-07-05T02:43:36;95094.91;;;20.95;90.14
6030;BME280;3043;42.682;23.376;2022-07-05T02:46:03;95089.44;;;20.98;90.31
6030;BME280;3043;42.682;23.376;2022-07-05T02:48:28;95096.41;;;20.99;91.47
6030;BME280;3043;42.682;23.376;2022-07-05T02:50:54;95099.03;;;20.85;92.48
6030;BME280;3043;42.682;23.376;2022-07-05T02:53:20;95095.25;;;20.89;91.74
6030;BME280;3043;42.682;23.376;2022-07-05T02:55:45;95100.41;;;20.90;92.36
6030;BME280;3043;42.682;23.376;2022-07-05T02:58:11;95102.22;;;20.90;93.22
6030;BME280;3043;42.682;23.376;2022-07-05T03:00:36;95094.72;;;20.98;91.92
6030;BME280;3043;42.682;23.376;2022-07-05T03:03:02;95099.22;;;21.10;90.99
6030;BME280;3043;42.682;23.376;2022-07-05T03:05:28;95107.47;;;21.04;89.75
6030;BME280;3043;42.682;23.376;2022-07-05T03:07:53;95096.22;;;21.02;91.29
6030;BME280;3043;42.682;23.376;2022-07-05T03:10:19;95091.16;;;20.99;92.78
6030;BME280;3043;42.682;23.376;2022-07-05T03:12:44;95096.41;;;20.99;94.28
6030;BME280;3043;42.682;23.376;2022-07-05T03:15:10;95097.50;;;21.09;94.13
6030;BME280;3043;42.682;23.376;2022-07-05T03:17:35;95095.28;;;21.03;94.91
6030;BME280;3043;42.682;23.376;2022-07-05T03:20:01;95087.38;;;21.03;95.53
6030;BME280;3043;42.682;23.376;2022-07-05T03:22:26;95092.91;;;21.13;97.00
6030;BME280;3043;42.682;23.376;2022-07-05T03:24:52;95089.88;;;21.19;97.15
6030;BME280;3043;42.682;23.376;2022-07-05T03:27:17;95094.84;;;21.23;98.01
6030;BME280;3043;42.682;23.376;2022-07-05T03:29:42;95098.53;;;21.47;93.98
6030;BME280;3043;42.682;23.376;2022-07-05T03:32:08;95095.25;;;21.70;93.02
6030;BME280;3043;42.682;23.376;2022-07-05T03:34:33;95091.56;;;22.24;90.34
6030;BME280;3043;42.682;23.376;2022-07-05T03:36:59;95095.81;;;22.64;82.93
6030;BME280;3043;42.682;23.376;2022-07-05T03:39:24;95090.16;;;23.07;79.98
6030;BME280;3043;42.682;23.376;2022-07-05T03:41:50;95097.09;;;23.56;82.38
6030;BME280;3043;42.682;23.376;2022-07-05T03:44:15;95094.09;;;24.08;76.27
6030;BME280;3043;42.682;23.376;2022-07-05T03:46:40;95090.00;;;24.61;70.60
6030;BME280;3043;42.682;23.376;2022-07-05T03:49:06;95088.72;;;24.88;62.97
6030;BME280;3043;42.682;23.376;2022-07-05T03:51:31;95089.75;;;25.52;62.19
6030;BME280;3043;42.682;23.376;2022-07-05T03:53:57;95088.91;;;25.83;62.29
6030;BME280;3043;42.682;23.376;2022-07-05T03:56:22;95076.06;;;26.31;57.67
6030;BME280;3043;42.682;23.376;2022-07-05T03:58:51;95088.91;;;26.97;53.89
6030;BME280;3043;42.682;23.376;2022-07-05T04:01:17;95084.16;;;27.30;51.56
6030;BME280;3043;42.682;23.376;2022-07-05T04:03:42;95087.31;;;27.64;51.12
6030;BME280;3043;42.682;23.376;2022-07-05T04:06:11;95087.38;;;28.02;48.61
6030;BME280;3043;42.682;23.376;2022-07-05T04:08:37;95091.31;;;28.27;47.88
6030;BME280;3043;42.682;23.376;2022-07-05T04:11:03;95091.88;;;28.30;47.47
6030;BME280;3043;42.682;23.376;2022-07-05T04:13:28;95095.78;;;28.26;47.94
6030;BME280;3043;42.682;23.376;2022-07-05T04:15:54;95092.41;;;28.43;50.90
6030;BME280;3043;42.682;23.376;2022-07-05T04:18:21;95098.19;;;29.13;46.16
6030;BME280;3043;42.682;23.376;2022-07-05T04:20:47;95101.78;;;29.22;45.17
6030;BME280;3043;42.682;23.376;2022-07-05T04:23:12;95095.84;;;29.37;45.84
6030;BME280;3043;42.682;23.376;2022-07-05T04:25:38;95095.53;;;29.68;45.13
6030;BME280;3043;42.682;23.376;2022-07-05T04:28:04;95097.50;;;29.93;43.39
6030;BME280;3043;42.682;23.376;2022-07-05T04:30:29;95092.00;;;30.12;44.04
6030;BME280;3043;42.682;23.376;2022-07-05T04:32:55;95098.38;;;30.46;43.66
6030;BME280;3043;42.682;23.376;2022-07-05T04:35:21;95099.56;;;30.51;42.84
6030;BME280;3043;42.682;23.376;2022-07-05T04:37:47;95093.50;;;30.67;41.84
6030;BME280;3043;42.682;23.376;2022-07-05T04:40:13;95094.47;;;30.66;42.42
6030;BME280;3043;42.682;23.376;2022-07-05T04:42:39;95100.47;;;31.03;41.58
6030;BME280;3043;42.682;23.376;2022-07-05T04:45:06;95102.25;;;31.28;40.74
6030;BME280;3043;42.682;23.376;2022-07-05T04:47:32;95097.19;;;31.43;40.08
6030;BME280;3043;42.682;23.376;2022-07-05T04:49:59;95098.91;;;31.52;39.96
6030;BME280;3043;42.682;23.376;2022-07-05T04:52:25;95094.22;;;31.95;39.07
6030;BME280;3043;42.682;23.376;2022-07-05T04:54:51;95099.66;;;32.51;38.15
6030;BME280;3043;42.682;23.376;2022-07-05T04:57:16;95098.00;;;32.42;37.51
6030;BME280;3043;42.682;23.376;2022-07-05T04:59:42;95113.72;;;32.45;37.77
6030;BME280;3043;42.682;23.376;2022-07-05T05:02:07;95110.69;;;32.32;37.83
6030;BME280;3043;42.682;23.376;2022-07-05T05:04:33;95113.50;;;31.65;37.97
6030;BME280;3043;42.682;23.376;2022-07-05T05:06:58;95102.19;;;30.69;39.54
6030;BME280;3043;42.682;23.376;2022-07-05T05:09:24;95105.88;;;30.68;40.19
6030;BME280;3043;42.682;23.376;2022-07-05T05:11:50;95109.97;;;32.06;37.59
6030;BME280;3043;42.682;23.376;2022-07-05T05:14:15;95106.94;;;31.26;38.97
6030;BME280;3043;42.682;23.376;2022-07-05T05:16:41;95110.28;;;31.87;37.70
6030;BME280;3043;42.682;23.376;2022-07-05T05:19:06;95114.03;;;32.26;36.89
6030;BME280;3043;42.682;23.376;2022-07-05T05:21:32;95113.41;;;32.48;36.49
6030;BME280;3043;42.682;23.376;2022-07-05T05:23:57;95121.38;;;32.24;37.63
6030;BME280;3043;42.682;23.376;2022-07-05T05:26:23;95116.41;;;33.02;36.80
6030;BME280;3043;42.682;23.376;2022-07-05T05:28:49;95121.03;;;33.48;35.85
6030;BME280;3043;42.682;23.376;2022-07-05T05:31:14;95111.38;;;33.15;35.31
6030;BME280;3043;42.682;23.376;2022-07-05T05:33:40;95117.72;;;33.38;35.48
6030;BME280;3043;42.682;23.376;2022-07-05T05:36:05;95113.81;;;34.25;34.87
6030;BME280;3043;42.682;23.376;2022-07-05T05:38:31;95112.28;;;34.54;33.63
6030;BME280;3043;42.682;23.376;2022-07-05T05:40:57;95111.75;;;34.05;33.98
6030;BME280;3043;42.682;23.376;2022-07-05T05:43:22;95109.31;;;34.71;33.06
6030;BME280;3043;42.682;23.376;2022-07-05T05:45:48;95112.09;;;35.00;33.30
6030;BME280;3043;42.682;23.376;2022-07-05T05:48:13;95112.97;;;33.86;33.95
6030;BME280;3043;42.682;23.376;2022-07-05T05:50:39;95112.84;;;33.80;35.05
6030;BME280;3043;42.682;23.376;2022-07-05T05:53:05;95115.97;;;34.30;35.14
6030;BME280;3043;42.682;23.376;2022-07-05T05:55:31;95123.56;;;33.88;34.77
6030;BME280;3043;42.682;23.376;2022-07-05T05:58:19;95123.91;;;33.93;35.06
6030;BME280;3043;42.682;23.376;2022-07-05T06:00:49;95116.56;;;34.63;34.53
6030;BME280;3043;42.682;23.376;2022-07-05T06:03:21;95120.84;;;35.31;32.93
6030;BME280;3043;42.682;23.376;2022-07-05T06:05:47;95131.59;;;36.69;30.63
6030;BME280;3043;42.682;23.376;2022-07-05T06:08:13;95122.59;;;36.26;32.43
6030;BME280;3043;42.682;23.376;2022-07-05T06:10:39;95119.72;;;36.13;31.42
6030;BME280;3043;42.682;23.376;2022-07-05T06:13:06;95127.56;;;36.44;31.50
6030;BME280;3043;42.682;23.376;2022-07-05T06:15:33;95124.50;;;37.31;30.21
6030;BME280;3043;42.682;23.376;2022-07-05T06:17:58;95128.41;;;37.90;29.73
6030;BME280;3043;42.682;23.376;2022-07-05T06:20:30;95128.78;;;38.15;28.81
6030;BME280;3043;42.682;23.376;2022-07-05T06:22:56;95131.25;;;38.76;27.78
6030;BME280;3043;42.682;23.376;2022-07-05T06:25:22;95124.59;;;38.12;28.35
6030;BME280;3043;42.682;23.376;2022-07-05T06:27:53;95123.41;;;37.87;29.16
6030;BME280;3043;42.682;23.376;2022-07-05T06:30:20;95137.13;;;38.26;28.14
6030;BME280;3043;42.682;23.376;2022-07-05T06:32:48;95125.31;;;38.40;28.21
6030;BME280;3043;42.682;23.376;2022-07-05T06:35:14;95129.06;;;38.46;28.02
6030;BME280;3043;42.682;23.376;2022-07-05T06:37:44;95129.84;;;39.13;27.14
6030;BME280;3043;42.682;23.376;2022-07-05T06:40:36;95134.63;;;39.70;25.95
6030;BME280;3043;42.682;23.376;2022-07-05T06:43:07;95131.72;;;39.65;27.05
6030;BME280;3043;42.682;23.376;2022-07-05T06:45:33;95126.72;;;39.49;25.55
6030;BME280;3043;42.682;23.376;2022-07-05T06:48:03;95127.56;;;39.49;25.87
6030;BME280;3043;42.682;23.376;2022-07-05T06:50:33;95124.03;;;38.36;26.91
6030;BME280;3043;42.682;23.376;2022-07-05T06:52:59;95121.59;;;38.48;27.04
6030;BME280;3043;42.682;23.376;2022-07-05T06:55:25;95123.34;;;38.75;27.82
6030;BME280;3043;42.682;23.376;2022-07-05T06:58:17;95119.06;;;40.16;26.07
6030;BME280;3043;42.682;23.376;2022-07-05T07:00:43;95114.50;;;40.03;26.05
6030;BME280;3043;42.682;23.376;2022-07-05T07:03:09;95118.97;;;40.42;25.27
6030;BME280;3043;42.682;23.376;2022-07-05T07:05:35;95111.19;;;40.90;25.18
6030;BME280;3043;42.682;23.376;2022-07-05T07:08:00;95108.59;;;41.01;24.56
6030;BME280;3043;42.682;23.376;2022-07-05T07:10:44;95109.91;;;40.61;24.29
6030;BME280;3043;42.682;23.376;2022-07-05T07:13:10;95116.94;;;40.31;24.99
6030;BME280;3043;42.682;23.376;2022-07-05T07:15:35;95112.28;;;41.13;24.20
6030;BME280;3043;42.682;23.376;2022-07-05T07:18:01;95107.19;;;41.23;23.99
6030;BME280;3043;42.682;23.376;2022-07-05T07:20:26;95112.28;;;41.13;23.80
6030;BME280;3043;42.682;23.376;2022-07-05T07:22:52;95110.72;;;41.24;23.77
6030;BME280;3043;42.682;23.376;2022-07-05T07:25:18;95104.59;;;39.65;26.31
6030;BME280;3043;42.682;23.376;2022-07-05T07:27:47;95122.28;;;40.88;23.54
6030;BME280;3043;42.682;23.376;2022-07-05T07:30:15;95121.25;;;39.81;24.72
6030;BME280;3043;42.682;23.376;2022-07-05T07:32:41;95108.78;;;39.22;25.92
6030;BME280;3043;42.682;23.376;2022-07-05T07:35:08;95120.06;;;39.45;26.28
6030;BME280;3043;42.682;23.376;2022-07-05T07:37:34;95118.38;;;39.37;26.97
6030;BME280;3043;42.682;23.376;2022-07-05T07:40:00;95108.41;;;39.18;25.71
6030;BME280;3043;42.682;23.376;2022-07-05T07:42:27;95101.66;;;39.86;25.38
6030;BME280;3043;42.682;23.376;2022-07-05T07:44:53;95103.53;;;41.11;24.10
6030;BME280;3043;42.682;23.376;2022-07-05T07:47:18;95108.13;;;41.04;24.44
6030;BME280;3043;42.682;23.376;2022-07-05T07:49:43;95101.81;;;40.48;24.83
6030;BME280;3043;42.682;23.376;2022-07-05T07:52:09;95109.72;;;40.05;24.46
6030;BME280;3043;42.682;23.376;2022-07-05T07:54:34;95108.28;;;39.96;25.54
6030;BME280;3043;42.682;23.376;2022-07-05T07:57:00;95108.13;;;41.04;24.77
6030;BME280;3043;42.682;23.376;2022-07-05T07:59:27;95110.22;;;41.09;25.29
6030;BME280;3043;42.682;23.376;2022-07-05T08:01:52;95116.66;;;40.83;24.67
6030;BME280;3043;42.682;23.376;2022-07-05T08:04:18;95104.59;;;41.77;23.61
6030;BME280;3043;42.682;23.376;2022-07-05T08:06:44;95107.22;;;42.86;22.44
6030;BME280;3043;42.682;23.376;2022-07-05T08:09:09;95111.16;;;41.88;23.60
6030;BME280;3043;42.682;23.376;2022-07-05T08:11:35;95105.19;;;41.12;23.81
6030;BME280;3043;42.682;23.376;2022-07-05T08:14:00;95106.84;;;41.62;22.94
6030;BME280;3043;42.682;23.376;2022-07-05T08:16:26;95099.38;;;41.02;23.40
6030;BME280;3043;42.682;23.376;2022-07-05T08:18:51;95093.44;;;40.87;23.80
6030;BME280;3043;42.682;23.376;2022-07-05T08:21:35;95099.66;;;40.94;24.46
6030;BME280;3043;42.682;23.376;2022-07-05T08:24:05;95106.41;;;42.38;22.83
6030;BME280;3043;42.682;23.376;2022-07-05T08:26:31;95098.13;;;42.14;22.54
6030;BME280;3043;42.682;23.376;2022-07-05T08:28:58;95096.31;;;41.23;23.28
6030;BME280;3043;42.682;23.376;2022-07-05T08:31:25;95098.94;;;41.97;22.84
6030;BME280;3043;42.682;23.376;2022-07-05T08:33:51;95099.94;;;42.21;22.48
6030;BME280;3043;42.682;23.376;2022-07-05T08:36:16;95091.19;;;42.00;22.68
6030;BME280;3043;42.682;23.376;2022-07-05T08:38:42;95088.34;;;41.46;22.91
6030;BME280;3043;42.682;23.376;2022-07-05T08:41:09;95084.19;;;42.41;22.49
6030;BME280;3043;42.682;23.376;2022-07-05T08:43:37;95089.59;;;43.00;21.93
6030;BME280;3043;42.682;23.376;2022-07-05T08:46:05;95085.94;;;42.94;22.79
6030;BME280;3043;42.682;23.376;2022-07-05T08:48:36;95087.22;;;42.92;22.78
6030;BME280;3043;42.682;23.376;2022-07-05T08:51:15;95082.16;;;44.22;21.47
6030;BME280;3043;42.682;23.376;2022-07-05T08:53:44;95080.19;;;44.06;20.97
6030;BME280;3043;42.682;23.376;2022-07-05T08:56:11;95081.38;;;43.41;21.98
6030;BME280;3043;42.682;23.376;2022-07-05T08:58:38;95078.06;;;43.85;21.61
6030;BME280;3043;42.682;23.376;2022-07-05T09:01:05;95074.25;;;44.09;21.93
6030;BME280;3043;42.682;23.376;2022-07-05T09:03:33;95072.66;;;44.36;21.55
6030;BME280;3043;42.682;23.376;2022-07-05T09:06:00;95071.13;;;44.17;21.97
6030;BME280;3043;42.682;23.376;2022-07-05T09:08:30;95072.28;;;44.72;20.69
6030;BME280;3043;42.682;23.376;2022-07-05T09:11:00;95069.69;;;45.60;19.95
6030;BME280;3043;42.682;23.376;2022-07-05T09:13:26;95067.47;;;44.63;21.17
6030;BME280;3043;42.682;23.376;2022-07-05T09:15:52;95070.59;;;45.33;19.74
6030;BME280;3043;42.682;23.376;2022-07-05T09:18:39;95058.94;;;45.20;20.22
6030;BME280;3043;42.682;23.376;2022-07-05T09:21:22;95049.56;;;45.16;20.03
6030;BME280;3043;42.682;23.376;2022-07-05T09:24:11;95048.34;;;44.79;21.00
6030;BME280;3043;42.682;23.376;2022-07-05T09:26:47;95049.91;;;45.37;19.58
6030;BME280;3043;42.682;23.376;2022-07-05T09:29:19;95039.72;;;44.43;20.79
6030;BME280;3043;42.682;23.376;2022-07-05T09:31:46;95037.94;;;44.93;20.41
6030;BME280;3043;42.682;23.376;2022-07-05T09:34:13;95041.47;;;43.58;21.56
6030;BME280;3043;42.682;23.376;2022-07-05T09:37:09;95033.97;;;43.19;22.72
6030;BME280;3043;42.682;23.376;2022-07-05T09:44:46;95023.91;;;42.67;22.08
6030;BME280;3043;42.682;23.376;2022-07-05T09:47:14;95018.34;;;43.49;22.72
6030;BME280;3043;42.682;23.376;2022-07-05T09:49:48;95033.41;;;44.14;21.60
6030;BME280;3043;42.682;23.376;2022-07-05T09:52:30;95026.50;;;44.79;21.41
6030;BME280;3043;42.682;23.376;2022-07-05T09:55:03;95015.38;;;43.50;22.57
6030;BME280;3043;42.682;23.376;2022-07-05T09:57:29;95023.94;;;43.54;22.85
6030;BME280;3043;42.682;23.376;2022-07-05T10:00:04;95014.06;;;43.53;22.33
6030;BME280;3043;42.682;23.376;2022-07-05T10:02:37;95010.53;;;43.18;22.40
6030;BME280;3043;42.682;23.376;2022-07-05T10:07:41;95005.59;;;42.33;23.36
6030;BME280;3043;42.682;23.376;2022-07-05T10:10:13;94998.38;;;41.72;24.79
6030;BME280;3043;42.682;23.376;2022-07-05T10:12:40;94992.97;;;41.30;24.67
6030;BME280;3043;42.682;23.376;2022-07-05T10:15:08;94995.84;;;40.92;24.98
6030;BME280;3043;42.682;23.376;2022-07-05T10:17:37;94989.31;;;40.75;25.28
6030;BME280;3043;42.682;23.376;2022-07-05T10:20:12;94982.84;;;40.45;26.13
6030;BME280;3043;42.682;23.376;2022-07-05T10:22:38;94986.00;;;40.11;26.33
6030;BME280;3043;42.682;23.376;2022-07-05T10:25:04;94984.34;;;40.03;26.11
6030;BME280;3043;42.682;23.376;2022-07-05T10:27:32;94980.28;;;39.75;27.06
6030;BME280;3043;42.682;23.376;2022-07-05T10:30:01;94967.38;;;39.70;27.17
6030;BME280;3043;42.682;23.376;2022-07-05T10:32:28;94966.34;;;38.29;28.53
6030;BME280;3043;42.682;23.376;2022-07-05T10:34:53;94959.03;;;37.57;29.40
6030;BME280;3043;42.682;23.376;2022-07-05T10:37:22;94952.94;;;37.01;31.57
6030;BME280;3043;42.682;23.376;2022-07-05T10:39:50;94955.41;;;36.96;31.27
6030;BME280;3043;42.682;23.376;2022-07-05T10:42:16;94951.38;;;36.58;31.21
6030;BME280;3043;42.682;23.376;2022-07-05T10:44:42;94950.78;;;36.35;31.50
6030;BME280;3043;42.682;23.376;2022-07-05T10:47:12;94944.53;;;36.34;31.84
6030;BME280;3043;42.682;23.376;2022-07-05T10:49:39;94951.34;;;35.73;32.38
6030;BME280;3043;42.682;23.376;2022-07-05T10:52:05;94954.31;;;35.43;33.51
6030;BME280;3043;42.682;23.376;2022-07-05T10:55:17;94958.16;;;34.90;34.37
6030;BME280;3043;42.682;23.376;2022-07-05T10:57:42;94964.25;;;34.84;34.75
6030;BME280;3043;42.682;23.376;2022-07-05T11:00:10;94937.19;;;34.71;34.18
6030;BME280;3043;42.682;23.376;2022-07-05T11:02:39;94935.84;;;34.67;35.12
6030;BME280;3043;42.682;23.376;2022-07-05T11:05:06;94934.00;;;34.16;35.93
6030;BME280;3043;42.682;23.376;2022-07-05T11:07:56;94934.50;;;33.97;37.14
6030;BME280;3043;42.682;23.376;2022-07-05T11:10:22;94934.41;;;34.05;36.63
6030;BME280;3043;42.682;23.376;2022-07-05T11:12:47;94923.66;;;34.05;36.75
6030;BME280;3043;42.682;23.376;2022-07-05T11:15:13;94924.03;;;33.79;37.28
6030;BME280;3043;42.682;23.376;2022-07-05T11:17:39;94908.94;;;33.56;37.94
6030;BME280;3043;42.682;23.376;2022-07-05T11:20:11;94912.22;;;33.66;38.36
6030;BME280;3043;42.682;23.376;2022-07-05T11:22:39;94900.63;;;33.65;37.58
6030;BME280;3043;42.682;23.376;2022-07-05T11:25:08;94909.41;;;33.29;38.18
6030;BME280;3043;42.682;23.376;2022-07-05T11:27:35;94910.06;;;33.31;39.31
6030;BME280;3043;42.682;23.376;2022-07-05T11:30:00;94918.78;;;33.41;39.15
6030;BME280;3043;42.682;23.376;2022-07-05T11:35:11;94905.06;;;33.28;39.30
6030;BME280;3043;42.682;23.376;2022-07-05T11:38:00;94900.63;;;33.43;39.31
6030;BME280;3043;42.682;23.376;2022-07-05T11:40:29;94899.91;;;33.71;39.37
6030;BME280;3043;42.682;23.376;2022-07-05T11:42:55;94908.44;;;33.75;39.18
6030;BME280;3043;42.682;23.376;2022-07-05T11:45:21;94908.50;;;33.67;39.04
6030;BME280;3043;42.682;23.376;2022-07-05T11:47:46;94893.38;;;33.51;38.57
6030;BME280;3043;42.682;23.376;2022-07-05T11:50:12;94892.53;;;33.51;39.57
6030;BME280;3043;42.682;23.376;2022-07-05T11:52:38;94886.22;;;33.44;39.91
6030;BME280;3043;42.682;23.376;2022-07-05T11:55:08;94884.88;;;33.40;39.86
6030;BME280;3043;42.682;23.376;2022-07-05T11:57:35;94886.63;;;33.25;40.13
6030;BME280;3043;42.682;23.376;2022-07-05T12:00:01;94875.28;;;33.15;39.43
6030;BME280;3043;42.682;23.376;2022-07-05T12:02:27;94885.22;;;33.06;39.95
6030;BME280;3043;42.682;23.376;2022-07-05T12:04:54;94882.06;;;33.03;40.12
6030;BME280;3043;42.682;23.376;2022-07-05T12:07:30;94869.28;;;33.05;39.77
6030;BME280;3043;42.682;23.376;2022-07-05T12:09:56;94879.69;;;33.08;39.21
6030;BME280;3043;42.682;23.376;2022-07-05T12:12:40;94863.56;;;33.08;39.16
6030;BME280;3043;42.682;23.376;2022-07-05T12:15:10;94868.25;;;33.14;40.42
6030;BME280;3043;42.682;23.376;2022-07-05T12:17:37;94874.94;;;33.18;40.36
6030;BME280;3043;42.682;23.376;2022-07-05T12:20:04;94858.63;;;32.97;40.94
6030;BME280;3043;42.682;23.376;2022-07-05T12:22:31;94857.00;;;32.88;40.93
6030;BME280;3043;42.682;23.376;2022-07-05T12:24:56;94864.53;;;32.84;40.91
6030;BME280;3043;42.682;23.376;2022-07-05T12:27:25;94852.47;;;32.80;41.03
6030;BME280;3043;42.682;23.376;2022-07-05T12:29:51;94849.44;;;32.91;42.33
6030;BME280;3043;42.682;23.376;2022-07-05T12:32:16;94842.47;;;33.05;41.33
6030;BME280;3043;42.682;23.376;2022-07-05T12:34:42;94859.94;;;33.01;40.75
6030;BME280;3043;42.682;23.376;2022-07-05T12:37:07;94845.25;;;32.89;42.05
6030;BME280;3043;42.682;23.376;2022-07-05T12:39:32;94851.28;;;32.91;41.86
6030;BME280;3043;42.682;23.376;2022-07-05T12:41:59;94848.25;;;32.86;42.41
6030;BME280;3043;42.682;23.376;2022-07-05T12:44:24;94848.25;;;32.86;41.97
6030;BME280;3043;42.682;23.376;2022-07-05T12:46:50;94839.38;;;32.93;41.79
6030;BME280;3043;42.682;23.376;2022-07-05T12:49:17;94834.84;;;32.94;41.75
6030;BME280;3043;42.682;23.376;2022-07-05T12:51:43;94830.78;;;32.98;41.69
6030;BME280;3043;42.682;23.376;2022-07-05T12:54:20;94832.03;;;32.87;41.10
6030;BME280;3043;42.682;23.376;2022-07-05T12:57:05;94836.53;;;32.87;40.88
6030;BME280;3043;42.682;23.376;2022-07-05T13:00:05;94837.22;;;32.89;40.84
6030;BME280;3043;42.682;23.376;2022-07-05T13:02:44;94824.31;;;32.84;40.80
6030;BME280;3043;42.682;23.376;2022-07-05T13:05:20;94815.34;;;32.69;40.10
6030;BME280;3043;42.682;23.376;2022-07-05T13:07:46;94809.50;;;32.57;42.01
6030;BME280;3043;42.682;23.376;2022-07-05T13:10:16;94806.84;;;32.57;40.94
6030;BME280;3043;42.682;23.376;2022-07-05T13:12:42;94815.91;;;32.56;42.52
6030;BME280;3043;42.682;23.376;2022-07-05T13:15:08;94809.56;;;32.80;42.43
6030;BME280;3043;42.682;23.376;2022-07-05T13:17:34;94807.69;;;32.97;41.75
6030;BME280;3043;42.682;23.376;2022-07-05T13:19:59;94807.72;;;32.81;41.00
6030;BME280;3043;42.682;23.376;2022-07-05T13:22:26;94812.00;;;32.67;41.59
6030;BME280;3043;42.682;23.376;2022-07-05T13:24:51;94799.31;;;32.53;42.45